Time;durP1;ratioP1;P1;durP2;ratioP2;P2;SDS_P1;SDS_P2;PMS_P1;PMS_P2;Temp;Humidity;BMP_temperature;BMP_pressure;BME280_temperature;BME280_humidity;BME280_pressure;Samples;Min_cycle;Max_cycle;Signal;HPM_P1;HPM_P2
2022/05/01 00:00:44;;;;;;;3.15;2.80;;;;;;;11.55;50.27;94205.63;4991461;28;20038;-68
2022/05/01 00:03:30;;;;;;;5.13;3.15;;;;;;;11.16;51.09;94175.25;4993401;28;20625;-69
2022/05/01 00:05:55;;;;;;;4.15;3.00;;;;;;;11.33;51.41;94203.81;4988918;28;20238;-70
2022/05/01 00:08:20;;;;;;;4.28;3.42;;;;;;;11.26;51.46;94198.16;4991739;28;20964;-68
2022/05/01 00:10:46;;;;;;;5.60;3.97;;;;;;;11.18;51.42;94207.69;4991774;28;20042;-69
2022/05/01 00:13:11;;;;;;;6.13;3.65;;;;;;;11.22;51.47;94196.41;4993946;28;20120;-69
2022/05/01 00:15:37;;;;;;;10.95;7.10;;;;;;;11.24;51.30;94194.25;4986399;28;20403;-69
2022/05/01 00:18:03;;;;;;;7.65;4.68;;;;;;;11.12;51.37;94187.59;4990995;28;20136;-69
2022/05/01 00:20:28;;;;;;;7.13;4.40;;;;;;;11.17;51.86;94197.34;4992265;28;20595;-68
2022/05/01 00:22:54;;;;;;;6.13;3.97;;;;;;;11.26;51.13;94192.03;4990720;28;20037;-68
2022/05/01 00:25:19;;;;;;;4.32;3.58;;;;;;;11.03;51.29;94167.38;4993897;28;20107;-68
2022/05/01 00:27:44;;;;;;;4.60;3.15;;;;;;;11.10;51.44;94184.44;4994280;28;20041;-69
2022/05/01 00:30:10;;;;;;;5.75;3.90;;;;;;;11.27;50.94;94180.31;4993815;28;20140;-68
2022/05/01 00:38:05;;;;;;;5.00;3.70;;;;;;;11.28;50.47;94169.34;4980892;28;20049;-69
2022/05/01 00:40:31;;;;;;;4.25;3.33;;;;;;;11.20;50.64;94156.78;4994610;28;20446;-68
2022/05/01 00:43:00;;;;;;;3.83;2.97;;;;;;;11.30;50.23;94182.34;4991246;28;20038;-69
2022/05/01 00:45:26;;;;;;;3.28;2.67;;;;;;;11.31;50.24;94183.91;4995919;28;20133;-69
2022/05/01 00:47:51;;;;;;;3.80;2.95;;;;;;;11.09;50.69;94182.91;4991691;28;20046;-70
2022/05/01 00:50:17;;;;;;;4.85;3.10;;;;;;;11.01;50.59;94175.66;4994605;28;20210;-69
2022/05/01 00:52:42;;;;;;;4.90;3.15;;;;;;;11.05;50.69;94155.31;4994164;28;20048;-69
2022/05/01 00:55:08;;;;;;;4.65;3.30;;;;;;;11.05;50.71;94176.59;4993878;28;20049;-69
2022/05/01 00:57:34;;;;;;;3.50;2.95;;;;;;;11.15;50.44;94180.88;4990163;28;20087;-68
2022/05/01 00:59:59;;;;;;;4.32;2.80;;;;;;;11.12;50.10;94166.31;4995537;28;20044;-68
2022/05/01 01:02:24;;;;;;;5.38;4.38;;;;;;;10.46;53.27;94177.88;4990821;28;20040;-68
2022/05/01 01:04:50;;;;;;;5.50;4.07;;;;;;;10.46;52.64;94143.28;4993851;28;20117;-69
2022/05/01 01:07:15;;;;;;;5.13;3.90;;;;;;;10.82;52.42;94183.06;4993758;28;20587;-68
2022/05/01 01:09:41;;;;;;;5.35;3.67;;;;;;;11.04;51.33;94175.06;4991285;28;20042;-68
2022/05/01 01:15:09;;;;;;;5.57;4.35;;;;;;;11.20;50.38;94172.00;4991699;28;20164;-68
2022/05/01 01:17:43;;;;;;;5.00;4.18;;;;;;;11.26;50.43;94176.84;4993579;28;20490;-68
2022/05/01 01:20:12;;;;;;;5.68;3.85;;;;;;;11.27;50.27;94180.31;4993375;28;20543;-69
2022/05/01 01:22:39;;;;;;;5.18;4.07;;;;;;;11.23;50.01;94155.38;4997587;28;20054;-68
2022/05/01 01:25:06;;;;;;;5.18;3.20;;;;;;;11.10;49.94;94131.22;4995611;28;20038;-69
2022/05/01 01:27:32;;;;;;;5.57;3.70;;;;;;;11.37;49.81;94158.72;4993741;28;20125;-68
2022/05/01 01:32:43;;;;;;;6.90;4.68;;;;;;;11.22;50.63;94151.16;4998398;28;20495;-68
2022/05/01 01:35:09;;;;;;;6.03;4.53;;;;;;;11.18;50.93;94138.47;4990673;28;20026;-68
2022/05/01 01:37:35;;;;;;;7.03;4.68;;;;;;;11.42;51.11;94170.03;4992679;28;20038;-68
2022/05/01 01:40:01;;;;;;;5.85;4.30;;;;;;;11.32;51.47;94158.84;4998144;28;20030;-69
2022/05/01 01:42:30;;;;;;;7.20;5.00;;;;;;;11.36;51.69;94157.94;4995956;28;20413;-69
2022/05/01 01:44:58;;;;;;;6.45;4.78;;;;;;;11.36;51.68;94159.81;4997929;28;20045;-69
2022/05/01 01:47:24;;;;;;;7.05;4.68;;;;;;;11.33;51.79;94147.13;4995980;28;20466;-69
2022/05/01 01:49:49;;;;;;;8.18;5.25;;;;;;;11.33;51.46;94145.25;4974113;28;20049;-68
2022/05/01 01:52:14;;;;;;;5.03;3.92;;;;;;;11.30;51.59;94145.06;4978367;28;20578;-69
2022/05/01 01:54:40;;;;;;;11.18;5.50;;;;;;;11.33;51.62;94149.78;4984033;28;20048;-68
2022/05/01 01:57:05;;;;;;;6.85;4.93;;;;;;;11.43;51.62;94160.16;4995970;28;20589;-69
2022/05/01 01:59:31;;;;;;;7.00;5.30;;;;;;;11.43;51.09;94155.63;4995613;28;20076;-68
2022/05/01 02:01:56;;;;;;;7.88;4.57;;;;;;;11.39;51.48;94154.66;4994317;28;20022;-69
2022/05/01 02:04:23;;;;;;;6.45;5.10;;;;;;;11.04;52.52;94142.31;4995217;28;20533;-68
2022/05/01 02:06:48;;;;;;;6.90;4.68;;;;;;;11.24;52.04;94154.28;4995847;28;20041;-69
2022/05/01 02:09:15;;;;;;;6.68;4.53;;;;;;;11.31;51.84;94151.97;4995270;28;20092;-68
2022/05/01 02:11:41;;;;;;;6.75;5.00;;;;;;;11.11;51.62;94127.47;4992756;28;20026;-69
2022/05/01 02:14:06;;;;;;;8.70;5.47;;;;;;;11.15;51.81;94123.09;4995514;28;20045;-69
2022/05/01 02:16:32;;;;;;;6.90;5.60;;;;;;;11.30;51.76;94153.03;4997299;28;20045;-68
2022/05/01 02:18:57;;;;;;;7.95;5.43;;;;;;;11.27;51.71;94151.81;4991524;28;20086;-68
2022/05/01 02:21:35;;;;;;;9.25;5.78;;;;;;;11.09;52.09;94134.19;4997714;28;20061;-69
2022/05/01 02:24:09;;;;;;;7.43;6.03;;;;;;;11.26;51.82;94152.09;4992363;28;20537;-69
2022/05/01 02:26:35;;;;;;;6.97;5.60;;;;;;;11.24;51.87;94156.97;4994641;28;20369;-68
2022/05/01 02:29:02;;;;;;;9.02;5.50;;;;;;;11.18;52.21;94154.44;4994272;28;20470;-68
2022/05/01 02:31:28;;;;;;;8.82;6.30;;;;;;;10.63;53.27;94129.28;4994894;28;20494;-68
2022/05/01 02:33:53;;;;;;;9.57;6.80;;;;;;;10.85;52.25;94128.47;4994455;28;20108;-69
2022/05/01 02:36:19;;;;;;;7.95;6.00;;;;;;;11.03;52.53;94152.19;4994459;28;20034;-69
2022/05/01 02:38:46;;;;;;;8.98;5.45;;;;;;;10.95;51.96;94150.28;4992658;28;20613;-68
2022/05/01 02:41:12;;;;;;;8.95;5.30;;;;;;;11.00;51.71;94146.69;4999441;28;20032;-69
2022/05/01 02:43:38;;;;;;;7.38;5.13;;;;;;;10.95;51.73;94144.97;4991906;28;20053;-69
2022/05/01 02:46:03;;;;;;;9.05;6.22;;;;;;;10.94;51.87;94148.72;4994824;28;20045;-69
2022/05/01 02:48:28;;;;;;;6.95;5.43;;;;;;;10.82;51.49;94121.88;4992215;28;20208;-68
2022/05/01 02:50:54;;;;;;;6.10;5.50;;;;;;;10.87;51.61;94148.34;4997411;28;20042;-69
2022/05/01 02:53:19;;;;;;;9.52;5.30;;;;;;;10.84;51.49;94143.66;4993063;28;20064;-68
2022/05/01 02:55:45;;;;;;;13.88;6.25;;;;;;;10.65;51.67;94119.16;4995640;28;20418;-68
2022/05/01 02:58:10;;;;;;;9.85;5.93;;;;;;;10.74;52.12;94155.34;4996577;28;20124;-68
2022/05/01 03:00:35;;;;;;;8.30;5.32;;;;;;;10.77;51.40;94140.63;4991634;28;20041;-69
2022/05/01 03:03:01;;;;;;;7.18;5.43;;;;;;;10.56;51.47;94129.72;4996710;28;20460;-68
2022/05/01 03:05:26;;;;;;;6.13;5.10;;;;;;;10.52;51.37;94120.00;4991841;28;20113;-68
2022/05/01 03:07:55;;;;;;;4.95;4.32;;;;;;;10.65;50.87;94140.44;4995696;28;20025;-68
2022/05/01 03:10:22;;;;;;;5.43;4.32;;;;;;;10.42;50.98;94137.00;4993291;28;20629;-68
2022/05/01 03:12:47;;;;;;;5.90;4.80;;;;;;;10.54;51.59;94155.84;4998440;28;20049;-69
2022/05/01 03:15:13;;;;;;;8.77;5.00;;;;;;;10.32;51.50;94138.00;4993739;28;20080;-69
2022/05/01 03:23:06;;;;;;;7.63;5.72;;;;;;;10.16;52.64;94144.78;4996323;28;20045;-68
2022/05/01 03:25:32;;;;;;;6.90;5.90;;;;;;;10.19;52.90;94162.78;4994186;28;20038;-69
2022/05/01 03:27:58;;;;;;;8.48;6.25;;;;;;;10.02;52.94;94136.06;4993334;28;20453;-69
2022/05/01 03:30:24;;;;;;;7.82;6.03;;;;;;;10.09;52.85;94138.31;4989886;28;20410;-68
2022/05/01 03:32:50;;;;;;;8.07;5.68;;;;;;;10.20;52.60;94172.31;4995457;28;20067;-69
2022/05/01 03:35:17;;;;;;;7.40;5.35;;;;;;;10.17;52.91;94183.53;4995437;28;20060;-69
2022/05/01 03:37:43;;;;;;;8.68;5.82;;;;;;;9.85;52.81;94117.34;4992004;28;20053;-68
2022/05/01 03:40:12;;;;;;;5.57;4.97;;;;;;;10.31;52.71;94183.50;4994338;28;20268;-68
2022/05/01 03:42:37;;;;;;;9.82;5.80;;;;;;;10.28;52.35;94190.19;4993763;28;20431;-69
2022/05/01 03:45:03;;;;;;;7.45;5.57;;;;;;;10.32;52.28;94191.16;4991654;28;20052;-69
2022/05/01 03:47:28;;;;;;;7.90;5.47;;;;;;;10.35;52.36;94194.31;4991902;28;20037;-68
2022/05/01 03:49:53;;;;;;;8.50;5.85;;;;;;;10.05;52.50;94143.44;4996050;28;20531;-69
2022/05/01 03:52:19;;;;;;;6.97;5.78;;;;;;;10.44;52.40;94203.16;4990783;28;20041;-68
2022/05/01 03:54:44;;;;;;;10.13;5.50;;;;;;;10.42;52.28;94194.69;4993943;28;20124;-68
2022/05/01 03:57:11;;;;;;;7.57;5.30;;;;;;;10.45;52.69;94205.53;4991510;28;20939;-68
2022/05/01 03:59:36;;;;;;;8.95;6.32;;;;;;;10.39;52.48;94196.09;4992572;28;20162;-69
2022/05/01 04:02:02;;;;;;;8.43;5.28;;;;;;;10.47;52.38;94192.72;4994180;28;20029;-68
2022/05/01 04:04:27;;;;;;;7.70;5.85;;;;;;;10.63;52.21;94211.75;4994368;28;20469;-68
2022/05/01 04:06:52;;;;;;;9.23;5.95;;;;;;;10.50;52.37;94181.47;4994221;28;20514;-69
2022/05/01 04:09:18;;;;;;;7.63;5.70;;;;;;;10.39;52.31;94166.06;4989721;28;20080;-68
2022/05/01 04:11:43;;;;;;;9.40;6.32;;;;;;;10.68;52.87;94208.97;4995725;28;20034;-69
2022/05/01 04:14:09;;;;;;;8.82;6.32;;;;;;;10.70;52.74;94206.81;4994700;28;20030;-69
2022/05/01 04:16:34;;;;;;;20.25;9.38;;;;;;;10.87;52.63;94206.88;4990831;28;20518;-69
2022/05/01 04:19:00;;;;;;;9.38;6.40;;;;;;;10.99;52.92;94219.66;4990116;28;20088;-68
2022/05/01 04:21:25;;;;;;;11.52;7.05;;;;;;;10.94;52.51;94190.50;4991088;28;20504;-70
2022/05/01 04:23:51;;;;;;;9.35;6.38;;;;;;;11.17;52.52;94219.41;4986526;28;20034;-69
2022/05/01 04:26:17;;;;;;;8.52;6.45;;;;;;;11.27;52.75;94217.56;4975578;28;20486;-69
2022/05/01 04:29:36;;;;;;;6.50;5.45;;;;;;;11.25;52.62;94207.22;4962457;28;21416;-69
2022/05/01 04:31:28;;;;;;;10.63;6.47;;;;;;;11.41;52.38;94203.06;4973413;28;20038;-70
2022/05/01 04:33:54;;;;;;;8.95;6.20;;;;;;;11.53;52.00;94205.19;4984677;28;20050;-68
2022/05/01 04:36:20;;;;;;;8.18;6.45;;;;;;;11.49;52.41;94214.84;4992177;28;20030;-69
2022/05/01 04:38:45;;;;;;;10.95;6.82;;;;;;;11.55;52.30;94217.06;4993295;28;20044;-69
2022/05/01 04:41:10;;;;;;;11.20;7.63;;;;;;;11.68;51.85;94212.75;4996219;28;20474;-69
2022/05/01 04:43:36;;;;;;;8.32;6.28;;;;;;;11.66;52.09;94214.91;4992264;28;20035;-69
2022/05/01 04:46:02;;;;;;;10.05;6.63;;;;;;;11.63;52.53;94207.56;4975667;28;21698;-69
2022/05/01 04:48:28;;;;;;;7.97;6.57;;;;;;;11.63;51.82;94212.09;4976222;28;20077;-69
2022/05/01 04:50:54;;;;;;;9.60;7.70;;;;;;;11.69;52.39;94200.19;4977312;28;21479;-69
2022/05/01 04:53:21;;;;;;;11.88;7.20;;;;;;;11.50;52.99;94185.22;4991309;28;20540;-70
2022/05/01 04:55:48;;;;;;;10.65;7.43;;;;;;;11.60;52.92;94194.84;4993094;28;20074;-69
2022/05/01 04:58:17;;;;;;;12.10;7.65;;;;;;;11.62;53.09;94187.34;4997520;28;20375;-69
2022/05/01 05:00:44;;;;;;;10.02;7.80;;;;;;;11.82;52.89;94204.63;4982394;28;20026;-69
2022/05/01 05:03:10;;;;;;;9.73;7.28;;;;;;;11.57;53.51;94176.81;4978795;28;20627;-69
2022/05/01 05:05:35;;;;;;;14.30;7.03;;;;;;;11.66;53.37;94166.97;4971983;28;20031;-70
2022/05/01 05:10:47;;;;;;;11.95;7.93;;;;;;;11.77;53.27;94207.44;4974934;28;20461;-69
2022/05/01 05:13:14;;;;;;;10.73;7.50;;;;;;;11.96;53.10;94211.38;4980944;28;20081;-69
2022/05/01 05:15:40;;;;;;;11.50;8.02;;;;;;;11.78;53.89;94188.47;4987334;28;20034;-68
2022/05/01 05:18:06;;;;;;;14.32;8.13;;;;;;;12.08;53.90;94221.41;4993810;28;20432;-69
2022/05/01 05:20:31;;;;;;;11.80;8.38;;;;;;;11.45;55.08;94224.53;4993168;28;20013;-70
2022/05/01 05:22:56;;;;;;;15.13;9.75;;;;;;;11.19;56.87;94229.78;4995026;28;20595;-70
2022/05/01 05:25:22;;;;;;;13.48;9.00;;;;;;;10.16;60.26;94229.84;4996039;28;20038;-69
2022/05/01 05:27:47;;;;;;;15.90;10.02;;;;;;;10.22;61.33;94217.22;4997138;28;20589;-69
2022/05/01 05:30:13;;;;;;;15.35;9.82;;;;;;;10.16;62.45;94229.84;4993877;28;20034;-69
2022/05/01 05:32:39;;;;;;;18.95;11.07;;;;;;;10.42;61.97;94234.59;4994051;28;20022;-70
2022/05/01 05:35:05;;;;;;;12.05;9.32;;;;;;;10.30;62.47;94224.47;4995230;28;20041;-69
2022/05/01 05:37:33;;;;;;;11.60;8.18;;;;;;;10.17;63.08;94236.69;4995615;28;20037;-70
2022/05/01 05:40:00;;;;;;;14.90;9.43;;;;;;;9.86;63.80;94233.94;4982016;28;20041;-69
2022/05/01 05:42:26;;;;;;;16.73;9.20;;;;;;;9.89;64.36;94229.88;4973355;28;20686;-69
2022/05/01 05:44:51;;;;;;;17.80;10.75;;;;;;;8.93;67.06;94191.94;4972354;28;20043;-68
2022/05/01 05:47:16;;;;;;;20.65;10.75;;;;;;;8.95;68.56;94211.00;4975169;28;20105;-69
2022/05/01 05:49:42;;;;;;;18.48;11.05;;;;;;;9.02;68.62;94204.22;4970140;28;20407;-69
2022/05/01 05:52:07;;;;;;;16.05;10.95;;;;;;;9.26;68.43;94227.16;4974011;28;20070;-68
2022/05/01 05:54:33;;;;;;;15.43;9.80;;;;;;;9.64;67.18;94230.41;4972658;28;20833;-69
2022/05/01 05:56:59;;;;;;;14.20;9.70;;;;;;;9.77;66.34;94206.50;4980025;28;20046;-69
2022/05/01 05:59:24;;;;;;;14.65;9.75;;;;;;;10.21;65.70;94237.69;4997021;28;20417;-69
2022/05/01 06:01:49;;;;;;;20.08;9.70;;;;;;;10.27;64.64;94228.50;4993323;28;20037;-68
2022/05/01 06:04:15;;;;;;;13.60;9.25;;;;;;;10.15;65.06;94238.88;4982690;28;20060;-70
2022/05/01 06:06:40;;;;;;;17.35;10.60;;;;;;;9.91;66.15;94248.97;4978528;28;20033;-69
2022/05/01 06:09:07;;;;;;;15.40;9.35;;;;;;;10.16;65.41;94240.47;4977029;28;20068;-69
2022/05/01 06:11:35;;;;;;;14.63;10.25;;;;;;;9.88;66.05;94247.69;4995253;28;20486;-69
2022/05/01 06:14:01;;;;;;;14.40;9.13;;;;;;;9.99;65.97;94245.59;4994763;28;20564;-69
2022/05/01 06:16:26;;;;;;;14.65;8.73;;;;;;;10.06;65.19;94226.59;4994583;28;20037;-70
2022/05/01 06:18:52;;;;;;;13.07;8.77;;;;;;;10.12;66.06;94238.72;4993257;28;20030;-69
2022/05/01 06:21:18;;;;;;;14.30;9.38;;;;;;;10.15;65.86;94243.41;4984493;28;20042;-70
2022/05/01 06:23:45;;;;;;;15.02;9.85;;;;;;;10.00;65.74;94217.97;4993669;28;20037;-69
2022/05/01 06:26:11;;;;;;;19.67;10.07;;;;;;;9.79;66.92;94246.81;4996183;28;20022;-69
2022/05/01 06:28:36;;;;;;;16.33;10.35;;;;;;;10.05;67.11;94249.72;4991415;28;20493;-69
2022/05/01 06:31:02;;;;;;;16.63;10.73;;;;;;;10.24;67.14;94228.31;4987101;28;20683;-69
2022/05/01 06:33:29;;;;;;;15.45;10.02;;;;;;;10.65;65.31;94225.53;4987966;28;20073;-69
2022/05/01 06:35:55;;;;;;;14.18;9.07;;;;;;;10.51;64.57;94235.47;4996831;28;20042;-69
2022/05/01 06:38:22;;;;;;;13.70;8.95;;;;;;;10.71;64.13;94241.06;4996287;28;20021;-69
2022/05/01 06:40:48;;;;;;;14.15;8.35;;;;;;;10.62;64.05;94236.78;4993986;28;20476;-70
2022/05/01 06:43:14;;;;;;;13.70;8.73;;;;;;;10.06;64.18;94163.63;4997405;28;20030;-69
2022/05/01 06:45:45;;;;;;;13.70;8.70;;;;;;;10.21;64.76;94245.66;4993987;28;20497;-68
2022/05/01 06:48:11;;;;;;;14.65;9.30;;;;;;;10.11;65.26;94229.16;4994646;28;20108;-69
2022/05/01 06:50:37;;;;;;;11.30;8.57;;;;;;;10.26;65.44;94229.59;4990249;28;20025;-69
2022/05/01 06:53:04;;;;;;;14.00;8.77;;;;;;;10.35;64.67;94242.19;4995332;28;20333;-69
2022/05/01 06:55:30;;;;;;;13.10;8.68;;;;;;;10.38;64.62;94236.28;4974285;28;20026;-68
2022/05/01 06:57:55;;;;;;;12.07;8.10;;;;;;;10.62;64.14;94229.56;4973112;28;20652;-70
2022/05/01 07:00:22;;;;;;;10.00;7.60;;;;;;;10.62;63.26;94231.44;4971944;28;20414;-69
2022/05/01 07:02:49;;;;;;;14.15;8.70;;;;;;;10.38;63.46;94215.78;4974115;28;20038;-69
2022/05/01 07:05:17;;;;;;;11.85;8.07;;;;;;;10.88;63.30;94224.44;4961837;28;20786;-70
2022/05/01 07:07:42;;;;;;;10.50;7.40;;;;;;;10.87;61.05;94224.72;4974132;28;20037;-70
2022/05/01 07:10:08;;;;;;;13.82;8.88;;;;;;;10.69;60.32;94199.91;4971189;28;20039;-69
2022/05/01 07:12:34;;;;;;;11.05;7.57;;;;;;;10.66;60.17;94221.81;4975461;28;20034;-69
2022/05/01 07:15:00;;;;;;;12.55;7.90;;;;;;;10.41;61.02;94195.81;4971829;28;20046;-69
2022/05/01 07:17:26;;;;;;;9.50;6.93;;;;;;;10.73;61.13;94228.25;4969185;28;20022;-69
2022/05/01 07:19:52;;;;;;;10.52;8.00;;;;;;;10.99;60.61;94220.44;4971059;28;20786;-69
2022/05/01 07:22:17;;;;;;;10.57;7.40;;;;;;;10.83;57.85;94232.53;4970892;28;20069;-70
2022/05/01 07:24:43;;;;;;;8.98;6.13;;;;;;;10.81;56.17;94212.66;4973466;28;20085;-69
2022/05/01 07:27:08;;;;;;;7.88;5.50;;;;;;;10.87;56.11;94217.53;4970672;28;20175;-70
2022/05/01 07:29:34;;;;;;;8.95;6.05;;;;;;;10.75;56.54;94219.97;4972179;28;20740;-68
2022/05/01 07:31:59;;;;;;;9.07;6.30;;;;;;;10.58;57.18;94222.50;4959204;28;20054;-70
2022/05/01 07:34:24;;;;;;;10.52;7.05;;;;;;;10.80;57.52;94217.19;4972982;28;20035;-70
2022/05/01 07:36:50;;;;;;;11.77;6.60;;;;;;;10.62;57.05;94221.59;4971755;28;20069;-70
2022/05/01 07:39:15;;;;;;;9.02;6.28;;;;;;;10.38;57.43;94225.63;4971874;28;20553;-70
2022/05/01 07:41:41;;;;;;;6.75;5.75;;;;;;;10.51;56.69;94230.13;4971338;28;20062;-70
2022/05/01 07:44:08;;;;;;;8.20;5.47;;;;;;;10.67;55.81;94216.16;4967838;28;20038;-70
2022/05/01 07:46:34;;;;;;;9.85;6.13;;;;;;;10.79;56.78;94226.25;4968573;28;20041;-70
2022/05/01 07:48:59;;;;;;;8.50;6.43;;;;;;;10.86;57.23;94220.50;4969368;28;20645;-70
2022/05/01 07:51:25;;;;;;;7.45;5.28;;;;;;;10.72;55.30;94188.66;4967003;28;20031;-69
2022/05/01 07:53:50;;;;;;;8.88;5.97;;;;;;;10.84;54.53;94204.06;4962336;28;20478;-68
2022/05/01 07:56:15;;;;;;;7.93;5.80;;;;;;;10.84;53.77;94198.72;4971436;28;20033;-68
2022/05/01 07:58:41;;;;;;;8.95;5.55;;;;;;;11.10;53.26;94207.66;4960630;28;20054;-69
2022/05/01 08:01:07;;;;;;;7.78;5.18;;;;;;;11.15;51.79;94218.94;4963761;28;20480;-68
2022/05/01 08:06:16;;;;;;;10.30;5.88;;;;;;;11.04;51.63;94192.91;4968075;28;20044;-68
2022/05/01 08:08:42;;;;;;;7.80;5.53;;;;;;;11.23;51.24;94188.13;4970226;28;20027;-68
2022/05/01 08:11:08;;;;;;;5.47;4.55;;;;;;;11.47;49.30;94209.03;4967536;28;20427;-69
2022/05/01 08:13:34;;;;;;;6.40;5.15;;;;;;;11.69;49.90;94211.63;4953346;28;20541;-68
2022/05/01 08:16:00;;;;;;;5.03;3.85;;;;;;;11.70;46.84;94220.41;4959679;28;20958;-69
2022/05/01 08:21:10;;;;;;;7.32;5.03;;;;;;;11.73;48.90;94191.28;4971260;28;20057;-68
2022/05/01 08:23:37;;;;;;;11.80;4.82;;;;;;;11.96;46.46;94208.72;4968168;28;20023;-69
2022/05/01 08:26:07;;;;;;;5.97;4.07;;;;;;;11.82;45.35;94188.63;4963415;28;20030;-68
2022/05/01 08:28:34;;;;;;;4.43;4.03;;;;;;;12.07;47.10;94198.53;4965291;28;20518;-68
2022/05/01 08:31:00;;;;;;;4.90;4.15;;;;;;;11.95;46.33;94199.16;4957813;28;20054;-69
2022/05/01 08:33:26;;;;;;;6.63;3.78;;;;;;;11.90;45.26;94193.19;4966070;28;20070;-68
2022/05/01 08:35:52;;;;;;;6.35;4.40;;;;;;;12.18;46.81;94180.34;4969370;28;20082;-69
2022/05/01 08:38:18;;;;;;;6.68;3.53;;;;;;;12.52;45.23;94180.31;4968100;28;20448;-69
2022/05/01 08:40:47;;;;;;;5.80;4.25;;;;;;;12.81;45.53;94191.13;4972646;28;20231;-69
2022/05/01 08:43:17;;;;;;;4.85;3.58;;;;;;;12.90;43.83;94191.13;4990328;28;21047;-69
2022/05/01 08:46:10;;;;;;;4.95;4.03;;;;;;;12.79;43.42;94190.69;4991687;28;20077;-68
2022/05/01 08:48:42;;;;;;;6.25;3.78;;;;;;;12.82;42.24;94184.69;4978443;28;20050;-69
2022/05/01 08:51:07;;;;;;;5.00;3.70;;;;;;;12.60;42.46;94166.22;4969395;28;20050;-69
2022/05/01 08:53:36;;;;;;;4.03;3.50;;;;;;;12.63;41.64;94176.25;4959494;28;20870;-68
2022/05/01 08:56:02;;;;;;;5.65;4.18;;;;;;;12.62;43.77;94163.22;4979308;28;20026;-70
2022/05/01 08:58:30;;;;;;;3.80;3.45;;;;;;;13.02;43.43;94177.91;4991313;28;20049;-70
2022/05/01 09:00:58;;;;;;;4.93;4.22;;;;;;;12.93;43.52;94163.00;4988966;28;20034;-71
2022/05/01 09:03:24;;;;;;;6.38;4.18;;;;;;;12.93;43.16;94184.38;4988319;28;20057;-69
2022/05/01 09:05:51;;;;;;;4.70;3.85;;;;;;;12.57;42.58;94188.16;4976009;28;20490;-69
2022/05/01 09:08:16;;;;;;;4.38;3.97;;;;;;;12.71;41.69;94170.13;4974806;28;20061;-70
2022/05/01 09:10:43;;;;;;;3.53;3.13;;;;;;;13.16;41.67;94181.13;4969332;28;20318;-68
2022/05/01 09:13:09;;;;;;;4.28;3.00;;;;;;;12.84;40.42;94177.16;4973061;28;20125;-69
2022/05/01 09:15:41;;;;;;;3.92;3.20;;;;;;;13.02;41.28;94167.22;4972066;28;20046;-70
2022/05/01 09:18:08;;;;;;;3.72;2.80;;;;;;;12.94;40.39;94167.25;4990757;28;20591;-69
2022/05/01 09:20:39;;;;;;;3.83;3.35;;;;;;;13.15;40.88;94165.47;4972727;28;20030;-70
2022/05/01 09:23:06;;;;;;;4.72;3.20;;;;;;;12.95;40.72;94163.47;4978061;28;20476;-69
2022/05/01 09:25:34;;;;;;;4.38;3.42;;;;;;;13.03;41.22;94165.34;4978487;28;20047;-68
2022/05/01 09:28:17;;;;;;;4.45;2.83;;;;;;;13.08;40.71;94154.47;4974826;28;20035;-69
2022/05/01 09:30:44;;;;;;;6.88;4.00;;;;;;;13.00;41.10;94137.41;4974697;28;20398;-69
2022/05/01 09:33:20;;;;;;;4.68;3.60;;;;;;;13.19;41.25;94150.34;4976100;28;20039;-69
2022/05/01 09:35:46;;;;;;;4.07;2.78;;;;;;;13.00;40.42;94089.34;4966635;28;20441;-70
2022/05/01 09:38:23;;;;;;;3.25;2.80;;;;;;;13.69;41.14;94137.84;4974499;28;20091;-69
2022/05/01 09:40:56;;;;;;;5.03;2.75;;;;;;;13.87;39.48;94137.75;4974835;28;20093;-68
2022/05/01 09:43:43;;;;;;;3.38;3.05;;;;;;;13.50;39.79;94080.56;4972841;28;20655;-69
2022/05/01 09:46:20;;;;;;;4.00;3.67;;;;;;;13.64;39.43;94118.56;4974972;28;20078;-69
2022/05/01 09:49:08;;;;;;;4.30;3.25;;;;;;;13.80;39.28;94127.56;4976026;28;20087;-69
2022/05/01 09:51:35;;;;;;;3.97;2.38;;;;;;;13.89;37.71;94119.47;4978838;28;20074;-68
2022/05/01 09:54:02;;;;;;;3.55;2.75;;;;;;;13.89;37.18;94127.50;4976503;28;20061;-68
2022/05/01 09:56:28;;;;;;;2.50;2.05;;;;;;;14.02;36.93;94115.78;4973966;28;20038;-70
2022/05/01 09:59:01;;;;;;;2.88;2.47;;;;;;;14.08;36.90;94101.09;4976885;28;20026;-69
2022/05/01 10:01:28;;;;;;;1.67;1.58;;;;;;;14.55;37.54;94118.47;4975127;28;20390;-69
2022/05/01 10:03:54;;;;;;;1.77;1.67;;;;;;;14.70;37.31;94116.28;4976225;28;20106;-69
2022/05/01 10:06:20;;;;;;;2.35;2.10;;;;;;;14.66;37.33;94110.03;4971024;28;20096;-69
2022/05/01 10:08:47;;;;;;;3.70;1.83;;;;;;;14.45;36.03;94092.09;4971618;28;20616;-69
2022/05/01 10:11:16;;;;;;;2.58;2.05;;;;;;;14.37;36.13;94111.69;4969919;28;20026;-70
2022/05/01 10:13:43;;;;;;;1.77;1.65;;;;;;;14.58;36.12;94099.06;4970191;28;20153;-69
2022/05/01 10:16:11;;;;;;;2.65;2.00;;;;;;;14.33;36.89;94086.69;4972600;28;20037;-69
2022/05/01 10:18:38;;;;;;;2.63;1.98;;;;;;;14.33;36.77;94086.69;4964472;28;20093;-68
2022/05/01 10:21:05;;;;;;;3.10;1.83;;;;;;;14.40;36.40;94091.50;4973282;28;20084;-69
2022/05/01 10:23:31;;;;;;;4.25;1.95;;;;;;;14.37;36.34;94073.44;4972600;28;20341;-69
2022/05/01 10:25:59;;;;;;;2.22;1.98;;;;;;;14.30;35.75;94060.59;4973700;28;20058;-69
2022/05/01 10:28:49;;;;;;;2.60;2.08;;;;;;;14.59;35.19;94081.91;4971717;28;20062;-69
2022/05/01 10:34:32;;;;;;;1.75;1.55;;;;;;;14.72;34.69;94073.88;4974523;28;20049;-69
2022/05/01 10:37:03;;;;;;;1.70;1.30;;;;;;;14.64;34.55;94077.44;4967653;28;20035;-69
2022/05/01 10:39:34;;;;;;;1.90;1.67;;;;;;;14.54;33.64;94076.75;4973954;28;20089;-68
2022/05/01 10:42:00;;;;;;;2.33;1.73;;;;;;;14.46;34.58;94060.75;4974675;28;20041;-69
2022/05/01 10:44:40;;;;;;;1.80;1.40;;;;;;;14.41;34.09;94069.78;4970450;28;20050;-69
2022/05/01 10:47:12;;;;;;;1.80;1.65;;;;;;;14.35;34.16;94059.59;4969538;28;20022;-68
2022/05/01 10:49:45;;;;;;;1.50;1.40;;;;;;;14.60;34.73;94047.88;4966683;28;20046;-69
2022/05/01 10:52:15;;;;;;;1.60;1.50;;;;;;;14.93;34.36;94061.97;4969242;28;20093;-69
2022/05/01 10:54:41;;;;;;;2.25;1.65;;;;;;;14.69;33.97;94056.59;4969754;28;20089;-69
2022/05/01 10:57:10;;;;;;;2.13;1.73;;;;;;;14.55;33.60;94070.28;4970501;28;20528;-69
2022/05/01 10:59:43;;;;;;;2.00;1.77;;;;;;;14.11;32.70;94046.94;4975125;28;20501;-69
2022/05/01 11:02:35;;;;;;;2.05;1.45;;;;;;;14.57;34.41;94049.31;4970140;28;20031;-69
2022/05/01 11:05:01;;;;;;;1.90;1.50;;;;;;;14.72;33.31;94045.22;4961902;28;20113;-69
2022/05/01 11:07:28;;;;;;;2.22;1.58;;;;;;;14.71;33.87;94021.47;4967945;28;20524;-68
2022/05/01 11:09:57;;;;;;;5.22;1.70;;;;;;;15.22;35.32;94036.84;4972242;28;20047;-69
2022/05/01 11:12:24;;;;;;;2.72;2.25;;;;;;;15.46;34.73;94036.06;4969302;28;20045;-69
2022/05/01 11:14:52;;;;;;;6.47;1.73;;;;;;;14.90;33.66;94043.91;4972853;28;20042;-69
2022/05/01 11:17:42;;;;;;;1.83;1.60;;;;;;;14.74;33.75;94040.31;4969575;28;20039;-70
2022/05/01 11:20:25;;;;;;;2.65;1.90;;;;;;;14.74;34.18;94015.44;4967925;28;20039;-69
2022/05/01 11:22:51;;;;;;;2.80;1.90;;;;;;;14.70;34.59;94025.25;4971489;28;20765;-69
2022/05/01 11:25:23;;;;;;;2.22;1.80;;;;;;;14.80;35.19;94036.31;4970171;28;20049;-69
2022/05/01 11:27:50;;;;;;;1.65;1.55;;;;;;;14.69;34.27;94029.81;4971097;28;20068;-69
2022/05/01 11:30:22;;;;;;;3.78;1.85;;;;;;;14.86;34.55;94029.59;4972098;28;20050;-70
2022/05/01 11:32:51;;;;;;;7.20;4.32;;;;;;;14.43;34.93;94027.41;4969449;28;20517;-69
2022/05/01 11:35:17;;;;;;;3.85;2.30;;;;;;;14.40;35.01;94033.44;4972021;28;20038;-69
2022/05/01 11:38:08;;;;;;;3.78;2.40;;;;;;;14.71;36.31;94024.94;4966112;28;20035;-69
2022/05/01 11:40:34;;;;;;;2.25;1.70;;;;;;;14.71;34.78;94014.22;4970573;28;20138;-69
2022/05/01 11:43:19;;;;;;;3.05;1.83;;;;;;;14.92;35.04;94025.59;4969510;28;20462;-69
2022/05/01 11:45:46;;;;;;;2.00;1.80;;;;;;;14.70;35.46;94006.53;4955285;28;20537;-69
2022/05/01 11:48:14;;;;;;;2.58;1.83;;;;;;;15.00;36.84;94013.22;4972130;28;20057;-68
2022/05/01 11:50:40;;;;;;;2.55;1.90;;;;;;;14.81;35.20;93999.63;4970036;28;20374;-69
2022/05/01 11:53:20;;;;;;;2.00;1.70;;;;;;;14.66;35.54;94013.66;4975682;28;20061;-69
2022/05/01 12:04:22;;;;;;;2.13;1.92;;;;;;;14.48;36.47;93991.63;4968338;28;20117;-69
2022/05/01 12:06:47;;;;;;;3.72;2.90;;;;;;;14.66;37.89;93998.38;4970765;28;20053;-68
2022/05/01 12:09:16;;;;;;;6.20;2.22;;;;;;;14.85;36.51;93990.56;4968202;28;20035;-69